Time;durP1;ratioP1;P1;durP2;ratioP2;P2;SDS_P1;SDS_P2;PMS_P1;PMS_P2;Temp;Humidity;BMP_temperature;BMP_pressure;BME280_temperature;BME280_humidity;BME280_pressure;Samples;Min_cycle;Max_cycle;Signal;HPM_P1;HPM_P2
2023/03/10 10:11:30;;;;;;;10.67;10.27;;;13.20;99.90;;;;;;5088293;28;20587;-76
2023/03/10 10:14:17;;;;;;;9.93;9.53;;;15.00;99.90;;;;;;5089126;28;20508;-76
2023/03/10 10:16:52;;;;;;;9.67;9.30;;;14.70;99.90;;;;;;5088105;28;20448;-74
2023/03/10 10:19:22;;;;;;;10.50;9.90;;;14.40;99.90;;;;;;5087457;28;20669;-74
2023/03/10 10:21:54;;;;;;;9.70;9.30;;;14.20;99.90;;;;;;5087634;28;20454;-75
2023/03/10 10:24:21;;;;;;;10.03;9.63;;;14.10;99.90;;;;;;5088064;28;20470;-75
2023/03/10 10:26:50;;;;;;;10.33;9.93;;;13.70;99.90;;;;;;5087095;28;20937;-76
2023/03/10 10:29:21;;;;;;;11.07;10.47;;;13.60;99.90;;;;;;5087756;28;20555;-76
2023/03/10 10:32:05;;;;;;;10.53;10.13;;;13.40;99.90;;;;;;5087867;28;20447;-75
2023/03/10 10:34:32;;;;;;;12.93;12.23;;;13.20;99.90;;;;;;5087363;28;20447;-75
2023/03/10 10:36:59;;;;;;;11.73;11.13;;;13.20;99.90;;;;;;5087278;28;20877;-76
2023/03/10 10:39:31;;;;;;;10.40;10.00;;;13.20;99.90;;;;;;5087258;28;20450;-76
2023/03/10 10:42:18;;;;;;;10.67;10.20;;;13.20;99.90;;;;;;5087511;28;20461;-76
2023/03/10 10:44:45;;;;;;;11.67;11.07;;;13.30;99.90;;;;;;5087266;28;20504;-75
2023/03/10 10:47:26;;;;;;;11.87;11.37;;;13.20;99.90;;;;;;5087415;28;20507;-75
2023/03/10 10:49:53;;;;;;;13.27;12.67;;;12.90;99.90;;;;;;5087500;28;20574;-76
2023/03/10 10:52:22;;;;;;;13.50;12.80;;;12.60;99.90;;;;;;5087555;28;21010;-76
2023/03/10 10:54:55;;;;;;;13.30;12.80;;;12.60;99.90;;;;;;5087600;28;20762;-75
2023/03/10 10:57:27;;;;;;;12.93;12.53;;;12.60;99.90;;;;;;5087280;28;20516;-75
2023/03/10 10:59:54;;;;;;;11.50;11.00;;;12.70;99.90;;;;;;5087219;28;20569;-74
2023/03/10 11:02:24;;;;;;;10.10;9.70;;;12.80;99.90;;;;;;5086816;28;20454;-76
2023/03/10 11:04:51;;;;;;;12.00;11.40;;;12.80;99.90;;;;;;5087544;28;20490;-76
2023/03/10 11:07:20;;;;;;;10.80;10.47;;;12.90;99.90;;;;;;5087006;28;20466;-76
2023/03/10 11:09:47;;;;;;;10.90;10.40;;;13.10;99.90;;;;;;5086718;28;20494;-76
2023/03/10 11:12:20;;;;;;;10.70;10.30;;;13.10;99.90;;;;;;5074522;28;20451;-76
2023/03/10 11:15:08;;;;;;;10.63;10.00;;;13.30;99.90;;;;;;5073413;28;20459;-75
2023/03/10 11:17:42;;;;;;;10.60;10.23;;;13.60;99.90;;;;;;5073268;28;21008;-75
2023/03/10 11:20:23;;;;;;;10.53;10.13;;;13.70;99.90;;;;;;5073333;28;20450;-76
2023/03/10 11:22:57;;;;;;;10.43;10.03;;;13.90;99.90;;;;;;5072910;28;20504;-76
2023/03/10 11:25:30;;;;;;;11.43;10.87;;;14.00;99.90;;;;;;5072774;28;20442;-75
2023/03/10 11:28:13;;;;;;;10.80;10.40;;;13.70;99.90;;;;;;5072972;28;20975;-75
2023/03/10 11:30:51;;;;;;;10.00;9.60;;;13.50;99.90;;;;;;5072687;28;20986;-74
2023/03/10 11:33:25;;;;;;;9.87;9.50;;;13.50;99.90;;;;;;5072695;28;20809;-75
2023/03/10 11:35:55;;;;;;;10.70;10.40;;;13.40;99.90;;;;;;5072830;28;20456;-74
2023/03/10 11:38:34;;;;;;;10.90;10.50;;;13.50;99.90;;;;;;5072636;28;20455;-76
2023/03/10 11:41:08;;;;;;;10.37;9.90;;;13.30;99.90;;;;;;5072254;28;20457;-76
2023/03/10 11:43:49;;;;;;;10.83;10.33;;;13.20;99.90;;;;;;5072273;28;20451;-73
2023/03/10 11:46:22;;;;;;;11.33;10.70;;;13.30;99.90;;;;;;5072432;28;20815;-75
2023/03/10 11:48:56;;;;;;;10.27;9.87;;;13.30;99.90;;;;;;5072222;28;20451;-74
2023/03/10 11:51:29;;;;;;;10.40;10.00;;;13.20;99.90;;;;;;5072378;28;20483;-75
2023/03/10 11:53:58;;;;;;;10.50;10.10;;;13.20;99.90;;;;;;5072627;28;20455;-76
2023/03/10 11:56:27;;;;;;;11.10;10.70;;;13.20;99.90;;;;;;5072594;28;20451;-75
2023/03/10 11:58:56;;;;;;;11.07;10.67;;;13.10;99.90;;;;;;5072273;28;20454;-75
2023/03/10 12:01:30;;;;;;;10.57;10.07;;;13.10;99.90;;;;;;5072065;28;20941;-75
2023/03/10 12:04:06;;;;;;;10.60;10.20;;;13.00;99.90;;;;;;5072590;28;20873;-76
2023/03/10 12:06:38;;;;;;;11.00;10.70;;;12.90;99.90;;;;;;5072225;28;20443;-76
2023/03/10 12:09:06;;;;;;;11.97;11.40;;;12.70;99.90;;;;;;5071718;28;20471;-75
2023/03/10 12:11:35;;;;;;;10.07;9.77;;;13.00;99.90;;;;;;5071775;28;21100;-75
2023/03/10 12:14:02;;;;;;;10.33;9.83;;;13.00;99.90;;;;;;5071801;28;20980;-75
2023/03/10 12:16:36;;;;;;;10.90;10.40;;;13.10;99.90;;;;;;5072027;28;20474;-75
2023/03/10 12:19:04;;;;;;;11.00;10.50;;;13.10;99.90;;;;;;5072007;28;20451;-76
2023/03/10 12:21:35;;;;;;;10.70;10.20;;;13.20;99.90;;;;;;5072022;28;20800;-76
2023/03/10 12:24:03;;;;;;;9.80;9.50;;;13.40;99.90;;;;;;5070923;28;20874;-75
2023/03/10 12:27:04;;;;;;;10.10;9.70;;;13.70;99.90;;;;;;5071497;28;20451;-76
2023/03/10 12:29:37;;;;;;;10.43;10.03;;;14.40;99.90;;;;;;5068455;28;20833;-76
2023/03/10 12:32:05;;;;;;;10.60;10.20;;;14.50;99.90;;;;;;5071719;28;20450;-75
2023/03/10 12:34:32;;;;;;;10.30;10.00;;;14.60;99.90;;;;;;5071532;28;20443;-75
2023/03/10 12:37:05;;;;;;;10.50;10.20;;;14.20;99.90;;;;;;5071543;28;20447;-76
2023/03/10 12:39:40;;;;;;;10.17;9.87;;;13.80;99.90;;;;;;5071357;28;20451;-74
2023/03/10 12:42:28;;;;;;;8.97;8.77;;;13.90;99.90;;;;;;5071639;28;20519;-76
2023/03/10 12:45:07;;;;;;;9.80;9.50;;;13.40;99.90;;;;;;5071771;28;20910;-75
2023/03/10 12:47:47;;;;;;;10.43;10.03;;;13.30;99.90;;;;;;5071465;28;20496;-75
2023/03/10 12:50:27;;;;;;;10.10;9.70;;;13.20;99.90;;;;;;5071369;28;20491;-74
2023/03/10 12:53:03;;;;;;;11.07;10.70;;;13.10;99.90;;;;;;5071281;28;20530;-76
2023/03/10 12:55:30;;;;;;;11.03;10.40;;;13.40;99.90;;;;;;5071145;28;20541;-75
2023/03/10 12:58:03;;;;;;;10.40;10.00;;;13.80;99.90;;;;;;5071423;28;20443;-75
2023/03/10 13:00:38;;;;;;;10.70;10.40;;;14.00;99.90;;;;;;5070904;28;20459;-76
2023/03/10 13:03:27;;;;;;;10.67;10.30;;;14.00;99.90;;;;;;5070981;28;20458;-76
2023/03/10 13:06:05;;;;;;;10.60;10.30;;;13.70;99.90;;;;;;5067692;28;20463;-75
2023/03/10 13:08:40;;;;;;;10.60;10.20;;;13.50;99.90;;;;;;5070454;28;20479;-75
2023/03/10 13:11:21;;;;;;;10.57;10.17;;;13.70;99.90;;;;;;5070533;28;20494;-76
2023/03/10 13:13:52;;;;;;;10.87;10.47;;;13.70;99.90;;;;;;5070518;28;20505;-76
2023/03/10 13:16:20;;;;;;;10.50;10.20;;;13.20;99.90;;;;;;5070587;28;20451;-75
2023/03/10 13:18:49;;;;;;;10.50;10.20;;;12.90;99.90;;;;;;5070529;28;20843;-75
2023/03/10 13:21:25;;;;;;;10.30;10.00;;;13.00;99.90;;;;;;5070178;28;20962;-74
2023/03/10 13:23:52;;;;;;;10.40;10.00;;;13.20;99.90;;;;;;5070522;28;21033;-76
2023/03/10 13:26:20;;;;;;;11.53;10.90;;;12.80;99.90;;;;;;5070353;28;20462;-75
2023/03/10 13:28:52;;;;;;;10.80;10.50;;;12.40;99.90;;;;;;5070335;28;20451;-76
2023/03/10 13:31:22;;;;;;;10.60;10.20;;;12.20;99.90;;;;;;5070213;28;20573;-75
2023/03/10 13:33:54;;;;;;;10.30;10.00;;;12.10;99.90;;;;;;5069972;28;20451;-76
2023/03/10 13:36:31;;;;;;;10.50;10.20;;;12.40;99.90;;;;;;5070368;28;21024;-75
2023/03/10 13:38:58;;;;;;;10.33;10.03;;;12.50;99.90;;;;;;5071535;28;20454;-77
2023/03/10 13:41:25;;;;;;;13.60;13.20;;;12.40;99.90;;;;;;5075282;28;20478;-76
2023/03/10 13:43:53;;;;;;;13.00;12.60;;;12.10;99.90;;;;;;5074424;28;20462;-76
2023/03/10 13:46:24;;;;;;;12.73;12.23;;;11.80;99.90;;;;;;5071915;28;20662;-77
2023/03/10 13:48:53;;;;;;;11.10;10.80;;;11.70;99.90;;;;;;5071439;28;20447;-77
2023/03/10 13:51:23;;;;;;;12.87;12.47;;;11.60;99.90;;;;;;5071359;28;20489;-78
2023/03/10 13:53:54;;;;;;;16.70;16.20;;;11.50;99.90;;;;;;5071798;28;20438;-76
2023/03/10 13:56:24;;;;;;;16.37;15.87;;;11.30;99.90;;;;;;5073087;28;20896;-78
2023/03/10 13:58:53;;;;;;;14.80;14.40;;;11.50;99.90;;;;;;5072949;28;20451;-76
2023/03/10 14:01:23;;;;;;;11.70;11.30;;;11.70;99.90;;;;;;5071160;28;20462;-77
2023/03/10 14:03:57;;;;;;;16.90;16.30;;;11.70;99.90;;;;;;5071860;28;20499;-76
2023/03/10 14:06:25;;;;;;;15.83;15.33;;;11.60;99.90;;;;;;5073195;28;20554;-78
2023/03/10 14:08:52;;;;;;;16.60;16.00;;;11.60;99.90;;;;;;5079987;28;20471;-78
2023/03/10 14:11:34;;;;;;;16.30;15.70;;;11.40;99.90;;;;;;5075156;28;20586;-79
2023/03/10 14:14:03;;;;;;;14.50;14.10;;;11.50;99.90;;;;;;5073589;28;20451;-77
2023/03/10 14:16:53;;;;;;;14.23;13.83;;;11.60;99.90;;;;;;5070966;28;20508;-76
2023/03/10 14:19:45;;;;;;;12.80;12.40;;;11.70;99.90;;;;;;5071266;28;20451;-76
2023/03/10 14:22:42;;;;;;;12.40;12.00;;;11.80;99.90;;;;;;5072287;28;20459;-75
2023/03/10 14:25:12;;;;;;;10.70;10.40;;;12.00;99.90;;;;;;5025288;28;20841;-76
2023/03/10 14:27:41;;;;;;;11.60;11.30;;;12.20;99.90;;;;;;5072704;28;20443;-76
2023/03/10 14:30:24;;;;;;;11.27;10.97;;;12.20;99.90;;;;;;5070420;28;20449;-75
2023/03/10 14:32:52;;;;;;;11.57;11.27;;;12.20;99.90;;;;;;5070543;28;20497;-76
2023/03/10 14:35:22;;;;;;;11.47;11.17;;;12.10;99.90;;;;;;5070829;28;20820;-75
2023/03/10 14:37:49;;;;;;;14.50;14.10;;;11.90;99.90;;;;;;5071188;28;20483;-73
2023/03/10 14:40:17;;;;;;;15.40;14.90;;;11.60;99.90;;;;;;5070588;28;20458;-76
2023/03/10 14:42:45;;;;;;;16.00;15.50;;;11.30;99.90;;;;;;5070663;28;20454;-76
2023/03/10 14:45:24;;;;;;;15.50;15.00;;;11.10;99.90;;;;;;5071353;28;20428;-78
2023/03/10 14:47:51;;;;;;;16.60;16.10;;;11.00;99.90;;;;;;5074730;28;20504;-77
2023/03/10 14:50:20;;;;;;;17.27;16.67;;;11.10;99.90;;;;;;5073876;28;20451;-77
2023/03/10 14:52:47;;;;;;;18.50;17.80;;;11.10;99.90;;;;;;5074884;28;20574;-75
2023/03/10 14:55:14;;;;;;;16.57;16.07;;;11.30;99.90;;;;;;5074149;28;20454;-79
2023/03/10 14:57:43;;;;;;;17.13;16.53;;;11.40;99.90;;;;;;5074046;28;20527;-78
2023/03/10 15:00:13;;;;;;;17.30;16.70;;;11.40;99.90;;;;;;5073556;28;20508;-76
2023/03/10 15:02:40;;;;;;;17.00;16.40;;;11.40;99.90;;;;;;5073555;28;20458;-75
2023/03/10 15:05:10;;;;;;;16.83;16.23;;;11.20;99.90;;;;;;5073108;28;20470;-76
2023/03/10 15:07:41;;;;;;;18.30;17.70;;;11.00;99.90;;;;;;5073267;28;20471;-78
2023/03/10 15:10:08;;;;;;;18.10;17.47;;;11.00;99.90;;;;;;5073613;28;20943;-77
2023/03/10 15:12:35;;;;;;;18.60;17.90;;;10.90;99.90;;;;;;5073909;28;20446;-78
2023/03/10 15:15:02;;;;;;;19.23;18.53;;;10.80;99.90;;;;;;5073535;28;20856;-77
2023/03/10 15:17:29;;;;;;;17.70;17.10;;;10.60;99.90;;;;;;5073639;28;20447;-77
2023/03/10 15:19:55;;;;;;;17.07;16.47;;;10.60;99.90;;;;;;5073246;28;20505;-76
2023/03/10 15:22:22;;;;;;;16.27;15.77;;;10.50;99.90;;;;;;5073940;28;20534;-77
2023/03/10 15:24:50;;;;;;;15.70;15.20;;;10.50;99.90;;;;;;5074022;28;20455;-76
2023/03/10 15:27:17;;;;;;;14.53;14.07;;;10.50;99.90;;;;;;5073410;28;20667;-75
2023/03/10 15:29:43;;;;;;;11.83;11.50;;;10.30;99.90;;;;;;5073503;28;20939;-76
2023/03/10 15:32:10;;;;;;;11.43;11.10;;;10.20;99.90;;;;;;5073156;28;20482;-76
2023/03/10 15:34:37;;;;;;;11.50;11.20;;;10.20;99.90;;;;;;5072744;28;20934;-77
2023/03/10 15:37:06;;;;;;;10.27;9.97;;;10.10;99.90;;;;;;5072662;28;20442;-76
2023/03/10 15:39:33;;;;;;;10.13;9.83;;;10.30;99.90;;;;;;5072624;28;20735;-75
2023/03/10 15:42:01;;;;;;;10.87;10.47;;;10.50;99.90;;;;;;5072500;28;20446;-74
2023/03/10 15:44:27;;;;;;;11.83;11.43;;;10.70;99.90;;;;;;5072697;28;20971;-75
2023/03/10 15:46:54;;;;;;;9.90;9.60;;;10.90;99.90;;;;;;5072437;28;20455;-75
2023/03/10 15:49:21;;;;;;;10.63;10.33;;;10.90;99.90;;;;;;5072414;28;20516;-75
2023/03/10 15:51:48;;;;;;;10.20;9.90;;;10.90;99.90;;;;;;5072103;28;21080;-76
2023/03/10 15:54:15;;;;;;;10.63;10.33;;;10.90;99.90;;;;;;5072253;28;20477;-75
2023/03/10 15:56:41;;;;;;;11.10;10.70;;;10.80;99.90;;;;;;5072323;28;20444;-75
2023/03/10 15:59:09;;;;;;;10.20;9.80;;;10.70;99.90;;;;;;5072281;28;20787;-75
2023/03/10 16:01:37;;;;;;;11.30;10.90;;;10.80;99.90;;;;;;5072031;28;20505;-75
2023/03/10 16:04:04;;;;;;;10.80;10.40;;;10.70;99.90;;;;;;5072190;28;20450;-75
2023/03/10 16:06:31;;;;;;;10.80;10.40;;;10.70;99.90;;;;;;5071945;28;20554;-77
2023/03/10 16:08:58;;;;;;;10.93;10.10;;;10.60;99.90;;;;;;5072121;28;20505;-77
2023/03/10 16:11:25;;;;;;;11.27;10.80;;;10.50;99.90;;;;;;5071964;28;20506;-75
2023/03/10 16:13:52;;;;;;;11.07;10.57;;;10.70;99.90;;;;;;5072032;28;20450;-76
2023/03/10 16:16:22;;;;;;;11.43;11.00;;;10.70;99.90;;;;;;5071975;28;20455;-76
2023/03/10 16:18:49;;;;;;;11.57;11.00;;;10.70;99.90;;;;;;5071774;28;20501;-75
2023/03/10 16:21:16;;;;;;;10.37;10.07;;;10.70;99.90;;;;;;5071904;28;20451;-75
2023/03/10 16:23:43;;;;;;;10.23;9.73;;;10.70;99.90;;;;;;5071839;28;20459;-76
2023/03/10 16:26:12;;;;;;;11.10;10.70;;;10.60;99.90;;;;;;5071758;28;20462;-76
2023/03/10 16:28:43;;;;;;;11.30;10.67;;;10.50;99.90;;;;;;5071621;28;20946;-77
2023/03/10 16:31:11;;;;;;;9.87;9.37;;;10.50;99.90;;;;;;5071669;28;20885;-75
2023/03/10 16:33:39;;;;;;;10.80;10.07;;;10.40;99.90;;;;;;5071617;28;20461;-77
2023/03/10 16:36:08;;;;;;;10.47;10.07;;;10.20;99.90;;;;;;5071715;28;20460;-75
2023/03/10 16:38:35;;;;;;;9.97;9.47;;;10.10;99.90;;;;;;5071439;28;20828;-75
2023/03/10 16:41:03;;;;;;;10.07;9.67;;;10.00;99.90;;;;;;5071247;28;20741;-76
2023/03/10 16:43:31;;;;;;;9.30;9.00;;;10.00;99.90;;;;;;5071806;28;20454;-79
2023/03/10 16:46:06;;;;;;;10.23;9.63;;;9.70;99.90;;;;;;5071341;28;20473;-76
2023/03/10 16:48:33;;;;;;;12.70;12.10;;;9.20;99.90;;;;;;5070779;28;20455;-76
2023/03/10 16:51:17;;;;;;;12.90;11.87;;;8.90;99.90;;;;;;5070864;28;20471;-77
2023/03/10 16:53:44;;;;;;;12.20;11.80;;;8.70;99.90;;;;;;5071214;28;20725;-77
2023/03/10 16:56:10;;;;;;;12.20;11.60;;;8.60;99.90;;;;;;5071334;28;20456;-75
2023/03/10 16:58:37;;;;;;;11.07;10.57;;;8.40;99.90;;;;;;5071202;28;20543;-76
2023/03/10 17:01:04;;;;;;;11.20;10.70;;;8.20;99.90;;;;;;5071273;28;20451;-75
2023/03/10 17:03:32;;;;;;;10.87;10.47;;;8.10;99.90;;;;;;5071054;28;20443;-75
2023/03/10 17:06:00;;;;;;;11.10;10.60;;;8.10;99.90;;;;;;5070955;28;20451;-77
2023/03/10 17:08:28;;;;;;;10.30;9.53;;;8.00;99.90;;;;;;5070507;28;20471;-75
2023/03/10 17:10:55;;;;;;;10.50;10.00;;;7.90;99.90;;;;;;5070923;28;20483;-75
2023/03/10 17:13:21;;;;;;;13.00;12.20;;;8.00;99.90;;;;;;5070822;28;20943;-76
2023/03/10 17:15:48;;;;;;;11.70;11.00;;;8.10;99.90;;;;;;5070680;28;20512;-75
2023/03/10 17:18:18;;;;;;;9.30;8.90;;;8.20;99.90;;;;;;5070618;28;20447;-76
2023/03/10 17:20:44;;;;;;;11.17;10.57;;;8.20;99.90;;;;;;5070744;28;20447;-76
2023/03/10 17:23:12;;;;;;;10.13;9.57;;;8.10;99.90;;;;;;5070951;28;20447;-76
2023/03/10 17:25:41;;;;;;;10.73;10.10;;;8.00;99.90;;;;;;5070840;28;20463;-75
2023/03/10 17:28:08;;;;;;;8.80;8.40;;;8.00;99.90;;;;;;5070630;28;20462;-75
2023/03/10 17:30:37;;;;;;;11.47;10.03;;;7.90;99.90;;;;;;5070788;28;20500;-76
2023/03/10 17:33:04;;;;;;;10.17;9.57;;;7.80;99.90;;;;;;5070420;28;20500;-75
2023/03/10 17:35:36;;;;;;;9.00;8.60;;;7.90;99.90;;;;;;5070497;28;20443;-75
2023/03/10 17:38:03;;;;;;;9.60;8.90;;;8.00;99.90;;;;;;5070614;28;20861;-76
2023/03/10 17:40:32;;;;;;;8.83;8.50;;;8.00;99.90;;;;;;5070462;28;20448;-75
2023/03/10 17:42:59;;;;;;;9.97;9.07;;;8.00;99.90;;;;;;5070421;28;20516;-76
2023/03/10 17:45:26;;;;;;;9.20;8.63;;;8.00;99.90;;;;;;5070675;28;20870;-76
2023/03/10 17:47:52;;;;;;;8.90;8.50;;;8.00;99.90;;;;;;5070444;28;20856;-75
2023/03/10 17:50:21;;;;;;;9.30;8.57;;;7.90;99.90;;;;;;5070300;28;20455;-75
2023/03/10 17:52:48;;;;;;;8.40;7.93;;;7.90;99.90;;;;;;5069891;28;21228;-75
2023/03/10 17:55:14;;;;;;;9.07;8.57;;;7.80;99.90;;;;;;5070128;28;20451;-76
2023/03/10 17:57:42;;;;;;;8.60;8.10;;;7.80;99.90;;;;;;5070115;28;20454;-76
